sensor_id;sensor_type;location;lat;lon;timestamp;temperature;humidity
2112;DHT22;1062;52.538;13.400;2022-12-18T00:02:13;-4.70;99.90
2112;DHT22;1062;52.538;13.400;2022-12-18T00:04:39;-4.70;99.90
2112;DHT22;1062;52.538;13.400;2022-12-18T00:07:04;-4.80;99.90
2112;DHT22;1062;52.538;13.400;2022-12-18T00:09:30;-4.80;99.90
2112;DHT22;1062;52.538;13.400;2022-12-18T00:11:56;-4.70;99.90
2112;DHT22;1062;52.538;13.400;2022-12-18T00:14:21;-4.80;99.90
2112;DHT22;1062;52.538;13.400;2022-12-18T00:16:47;-4.80;99.90
2112;DHT22;1062;52.538;13.400;2022-12-18T00:19:13;-4.80;99.90
2112;DHT22;1062;52.538;13.400;2022-12-18T00:21:39;-4.90;99.90
2112;DHT22;1062;52.538;13.400;2022-12-18T00:24:05;-4.80;99.90
2112;DHT22;1062;52.538;13.400;2022-12-18T00:26:33;-4.70;99.90
2112;DHT22;1062;52.538;13.400;2022-12-18T00:29:00;-4.70;99.90
2112;DHT22;1062;52.538;13.400;2022-12-18T00:31:26;-4.60;99.90
2112;DHT22;1062;52.538;13.400;2022-12-18T00:33:54;-4.60;99.90
2112;DHT22;1062;52.538;13.400;2022-12-18T00:36:23;-4.60;99.90
2112;DHT22;1062;52.538;13.400;2022-12-18T00:38:49;-4.70;99.90
2112;DHT22;1062;52.538;13.400;2022-12-18T00:41:16;-4.70;99.90
2112;DHT22;1062;52.538;13.400;2022-12-18T00:44:02;-4.60;99.90
2112;DHT22;1062;52.538;13.400;2022-12-18T00:46:28;-4.80;99.90
2112;DHT22;1062;52.538;13.400;2022-12-18T00:48:54;-4.80;99.90
2112;DHT22;1062;52.538;13.400;2022-12-18T00:51:19;-4.80;99.90
2112;DHT22;1062;52.538;13.400;2022-12-18T00:53:45;-4.80;99.90
2112;DHT22;1062;52.538;13.400;2022-12-18T00:56:11;-4.70;99.90
2112;DHT22;1062;52.538;13.400;2022-12-18T00:58:36;-4.70;99.90
2112;DHT22;1062;52.538;13.400;2022-12-18T01:01:04;-4.70;99.90
2112;DHT22;1062;52.538;13.400;2022-12-18T01:03:29;-4.70;99.90
2112;DHT22;1062;52.538;13.400;2022-12-18T01:05:56;-4.80;99.90
2112;DHT22;1062;52.538;13.400;2022-12-18T01:08:21;-4.90;99.90
2112;DHT22;1062;52.538;13.400;2022-12-18T01:10:47;-5.00;99.90
2112;DHT22;1062;52.538;13.400;2022-12-18T01:13:13;-5.00;99.90
2112;DHT22;1062;52.538;13.400;2022-12-18T01:15:38;-4.90;99.90
2112;DHT22;1062;52.538;13.400;2022-12-18T01:18:06;-5.00;99.90
2112;DHT22;1062;52.538;13.400;2022-12-18T01:20:32;-5.00;99.90
2112;DHT22;1062;52.538;13.400;2022-12-18T01:22:57;-4.90;99.90
2112;DHT22;1062;52.538;13.400;2022-12-18T01:25:23;-4.90;99.90
2112;DHT22;1062;52.538;13.400;2022-12-18T01:27:49;-4.90;99.90
2112;DHT22;1062;52.538;13.400;2022-12-18T01:30:14;-4.90;99.90
2112;DHT22;1062;52.538;13.400;2022-12-18T01:32:40;-4.90;99.90
2112;DHT22;1062;52.538;13.400;2022-12-18T01:35:06;-4.90;99.90
2112;DHT22;1062;52.538;13.400;2022-12-18T01:37:32;-4.80;99.90
2112;DHT22;1062;52.538;13.400;2022-12-18T01:39:58;-4.90;99.90
2112;DHT22;1062;52.538;13.400;2022-12-18T01:42:24;-4.90;99.90
2112;DHT22;1062;52.538;13.400;2022-12-18T01:44:58;-4.90;99.90
2112;DHT22;1062;52.538;13.400;2022-12-18T01:47:32;-4.90;99.90
2112;DHT22;1062;52.538;13.400;2022-12-18T01:52:33;-5.00;99.90
2112;DHT22;1062;52.538;13.400;2022-12-18T01:55:00;-5.00;99.90
2112;DHT22;1062;52.538;13.400;2022-12-18T01:57:28;-4.90;99.90
2112;DHT22;1062;52.538;13.400;2022-12-18T01:59:56;-4.90;99.90
2112;DHT22;1062;52.538;13.400;2022-12-18T02:02:23;-4.90;99.90
2112;DHT22;1062;52.538;13.400;2022-12-18T02:04:48;-4.80;99.90
2112;DHT22;1062;52.538;13.400;2022-12-18T02:07:28;-4.90;99.90
2112;DHT22;1062;52.538;13.400;2022-12-18T02:12:45;-5.00;99.90
2112;DHT22;1062;52.538;13.400;2022-12-18T02:15:19;-5.10;99.90
2112;DHT22;1062;52.538;13.400;2022-12-18T02:18:03;-5.00;99.90
2112;DHT22;1062;52.538;13.400;2022-12-18T02:20:39;-5.10;99.90
2112;DHT22;1062;52.538;13.400;2022-12-18T02:26:12;-5.10;99.90
2112;DHT22;1062;52.538;13.400;2022-12-18T02:31:20;-5.20;99.90
2112;DHT22;1062;52.538;13.400;2022-12-18T02:33:48;-5.20;99.90
2112;DHT22;1062;52.538;13.400;2022-12-18T02:36:15;-5.30;99.90
2112;DHT22;1062;52.538;13.400;2022-12-18T02:38:42;-5.30;99.90
2112;DHT22;1062;52.538;13.400;2022-12-18T02:41:10;-5.40;99.90
2112;DHT22;1062;52.538;13.400;2022-12-18T02:43:37;-5.40;99.90
2112;DHT22;1062;52.538;13.400;2022-12-18T02:48:54;-5.40;99.90
2112;DHT22;1062;52.538;13.400;2022-12-18T02:51:53;-5.30;99.90
2112;DHT22;1062;52.538;13.400;2022-12-18T02:57:01;-5.50;99.90
2112;DHT22;1062;52.538;13.400;2022-12-18T02:59:35;-5.70;99.90
2112;DHT22;1062;52.538;13.400;2022-12-18T03:02:16;-5.60;99.90
2112;DHT22;1062;52.538;13.400;2022-12-18T03:04:56;-5.70;99.90
2112;DHT22;1062;52.538;13.400;2022-12-18T03:07:35;-5.80;99.90
2112;DHT22;1062;52.538;13.400;2022-12-18T03:10:02;-5.70;99.90
2112;DHT22;1062;52.538;13.400;2022-12-18T03:12:35;-5.80;99.90
2112;DHT22;1062;52.538;13.400;2022-12-18T03:15:16;-5.70;99.90
2112;DHT22;1062;52.538;13.400;2022-12-18T03:17:52;-5.80;99.90
2112;DHT22;1062;52.538;13.400;2022-12-18T03:20:21;-5.70;99.90
2112;DHT22;1062;52.538;13.400;2022-12-18T03:22:52;-5.70;99.90
2112;DHT22;1062;52.538;13.400;2022-12-18T03:25:19;-5.70;99.90
2112;DHT22;1062;52.538;13.400;2022-12-18T03:27:52;-5.60;99.90
2112;DHT22;1062;52.538;13.400;2022-12-18T03:30:19;-5.60;99.90
2112;DHT22;1062;52.538;13.400;2022-12-18T03:33:05;-5.50;99.90
2112;DHT22;1062;52.538;13.400;2022-12-18T03:35:38;-5.50;99.90
2112;DHT22;1062;52.538;13.400;2022-12-18T03:38:05;-5.50;99.90
2112;DHT22;1062;52.538;13.400;2022-12-18T03:43:19;-5.40;99.90
2112;DHT22;1062;52.538;13.400;2022-12-18T03:45:54;-5.40;99.90
2112;DHT22;1062;52.538;13.400;2022-12-18T03:48:31;-5.40;99.90
2112;DHT22;1062;52.538;13.400;2022-12-18T03:51:02;-5.40;99.90
2112;DHT22;1062;52.538;13.400;2022-12-18T03:56:18;-5.40;99.90
2112;DHT22;1062;52.538;13.400;2022-12-18T03:58:48;-5.30;99.90
2112;DHT22;1062;52.538;13.400;2022-12-18T04:01:15;-5.40;99.90
2112;DHT22;1062;52.538;13.400;2022-12-18T04:03:42;-5.40;99.90
2112;DHT22;1062;52.538;13.400;2022-12-18T04:06:10;-5.40;99.90
2112;DHT22;1062;52.538;13.400;2022-12-18T04:08:36;-5.50;99.90
2112;DHT22;1062;52.538;13.400;2022-12-18T04:11:02;-5.40;99.90
2112;DHT22;1062;52.538;13.400;2022-12-18T04:13:30;-5.50;99.90
2112;DHT22;1062;52.538;13.400;2022-12-18T04:15:57;-5.40;99.90
2112;DHT22;1062;52.538;13.400;2022-12-18T04:18:22;-5.40;99.90
2112;DHT22;1062;52.538;13.400;2022-12-18T04:20:48;-5.60;99.90
2112;DHT22;1062;52.538;13.400;2022-12-18T04:23:13;-5.70;99.90
2112;DHT22;1062;52.538;13.400;2022-12-18T04:25:39;-5.70;99.90
2112;DHT22;1062;52.538;13.400;2022-12-18T04:28:05;-5.70;99.90
2112;DHT22;1062;52.538;13.400;2022-12-18T04:30:30;-5.60;99.90
2112;DHT22;1062;52.538;13.400;2022-12-18T04:32:56;-5.60;99.90
2112;DHT22;1062;52.538;13.400;2022-12-18T04:35:21;-5.50;99.90
2112;DHT22;1062;52.538;13.400;2022-12-18T04:37:47;-5.50;99.90
2112;DHT22;1062;52.538;13.400;2022-12-18T04:40:12;-5.70;99.90
2112;DHT22;1062;52.538;13.400;2022-12-18T04:42:39;-5.80;99.90
2112;DHT22;1062;52.538;13.400;2022-12-18T04:45:06;-5.80;99.90
2112;DHT22;1062;52.538;13.400;2022-12-18T04:47:32;-5.60;99.90
2112;DHT22;1062;52.538;13.400;2022-12-18T04:49:57;-5.60;99.90
2112;DHT22;1062;52.538;13.400;2022-12-18T04:52:23;-5.70;99.90
2112;DHT22;1062;52.538;13.400;2022-12-18T04:54:49;-5.70;99.90
2112;DHT22;1062;52.538;13.400;2022-12-18T04:57:14;-5.60;99.90
2112;DHT22;1062;52.538;13.400;2022-12-18T04:59:40;-5.70;99.90
2112;DHT22;1062;52.538;13.400;2022-12-18T05:02:06;-5.80;99.90
2112;DHT22;1062;52.538;13.400;2022-12-18T05:04:31;-5.70;99.90
2112;DHT22;1062;52.538;13.400;2022-12-18T05:06:57;-5.80;99.90
2112;DHT22;1062;52.538;13.400;2022-12-18T05:09:23;-5.80;99.90
2112;DHT22;1062;52.538;13.400;2022-12-18T05:11:49;-5.80;99.90
2112;DHT22;1062;52.538;13.400;2022-12-18T05:14:14;-5.80;99.90
2112;DHT22;1062;52.538;13.400;2022-12-18T05:16:40;-5.70;99.90
2112;DHT22;1062;52.538;13.400;2022-12-18T05:19:06;-5.80;99.90
2112;DHT22;1062;52.538;13.400;2022-12-18T05:21:31;-5.70;99.90
2112;DHT22;1062;52.538;13.400;2022-12-18T05:23:57;-5.70;99.90
2112;DHT22;1062;52.538;13.400;2022-12-18T05:26:23;-5.70;99.90
2112;DHT22;1062;52.538;13.400;2022-12-18T05:28:48;-5.60;99.90
2112;DHT22;1062;52.538;13.400;2022-12-18T05:31:14;-5.70;99.90
2112;DHT22;1062;52.538;13.400;2022-12-18T05:33:40;-5.80;99.90
2112;DHT22;1062;52.538;13.400;2022-12-18T05:36:07;-5.70;99.90
2112;DHT22;1062;52.538;13.400;2022-12-18T05:38:35;-5.60;99.90
2112;DHT22;1062;52.538;13.400;2022-12-18T05:41:01;-5.60;99.90
2112;DHT22;1062;52.538;13.400;2022-12-18T05:43:27;-5.50;99.90
2112;DHT22;1062;52.538;13.400;2022-12-18T05:45:53;-5.60;99.90
2112;DHT22;1062;52.538;13.400;2022-12-18T05:48:20;-5.70;99.90
2112;DHT22;1062;52.538;13.400;2022-12-18T05:50:47;-5.80;99.90
2112;DHT22;1062;52.538;13.400;2022-12-18T05:53:15;-6.00;99.90
2112;DHT22;1062;52.538;13.400;2022-12-18T05:55:42;-5.90;99.90
2112;DHT22;1062;52.538;13.400;2022-12-18T05:58:09;-5.90;99.90
2112;DHT22;1062;52.538;13.400;2022-12-18T06:00:37;-5.90;99.90
2112;DHT22;1062;52.538;13.400;2022-12-18T06:03:08;-5.90;99.90
2112;DHT22;1062;52.538;13.400;2022-12-18T06:05:41;-5.90;99.90
2112;DHT22;1062;52.538;13.400;2022-12-18T06:08:07;-5.80;99.90
2112;DHT22;1062;52.538;13.400;2022-12-18T06:10:33;-5.80;99.90
2112;DHT22;1062;52.538;13.400;2022-12-18T06:12:59;-5.80;99.90
2112;DHT22;1062;52.538;13.400;2022-12-18T06:15:24;-5.70;99.90
2112;DHT22;1062;52.538;13.400;2022-12-18T06:17:50;-5.60;99.90
2112;DHT22;1062;52.538;13.400;2022-12-18T06:20:15;-5.60;99.90
2112;DHT22;1062;52.538;13.400;2022-12-18T06:22:41;-5.50;99.90
2112;DHT22;1062;52.538;13.400;2022-12-18T06:25:07;-5.50;99.90
2112;DHT22;1062;52.538;13.400;2022-12-18T06:27:32;-5.50;99.90
2112;DHT22;1062;52.538;13.400;2022-12-18T06:29:59;-5.60;99.90
2112;DHT22;1062;52.538;13.400;2022-12-18T06:32:25;-5.60;99.90
2112;DHT22;1062;52.538;13.400;2022-12-18T06:34:50;-5.60;99.90
2112;DHT22;1062;52.538;13.400;2022-12-18T06:37:16;-5.60;99.90
2112;DHT22;1062;52.538;13.400;2022-12-18T06:39:41;-5.60;99.90
2112;DHT22;1062;52.538;13.400;2022-12-18T06:42:07;-5.60;99.90
2112;DHT22;1062;52.538;13.400;2022-12-18T06:44:33;-5.60;99.90
2112;DHT22;1062;52.538;13.400;2022-12-18T06:46:58;-5.60;99.90
2112;DHT22;1062;52.538;13.400;2022-12-18T06:49:24;-5.50;99.90
2112;DHT22;1062;52.538;13.400;2022-12-18T06:51:49;-5.50;99.90
2112;DHT22;1062;52.538;13.400;2022-12-18T06:54:15;-5.50;99.90
2112;DHT22;1062;52.538;13.400;2022-12-18T06:56:40;-5.60;99.90
2112;DHT22;1062;52.538;13.400;2022-12-18T06:59:06;-5.60;99.90
2112;DHT22;1062;52.538;13.400;2022-12-18T07:01:31;-5.60;99.90
2112;DHT22;1062;52.538;13.400;2022-12-18T07:03:57;-5.50;99.90
2112;DHT22;1062;52.538;13.400;2022-12-18T07:06:25;-5.50;99.90
2112;DHT22;1062;52.538;13.400;2022-12-18T07:08:52;-5.40;99.90
2112;DHT22;1062;52.538;13.400;2022-12-18T07:11:18;-5.40;99.90
2112;DHT22;1062;52.538;13.400;2022-12-18T07:13:45;-5.40;99.90
2112;DHT22;1062;52.538;13.400;2022-12-18T07:16:16;-5.40;99.90
2112;DHT22;1062;52.538;13.400;2022-12-18T07:18:42;-5.40;99.90
2112;DHT22;1062;52.538;13.400;2022-12-18T07:21:10;-5.30;99.90
2112;DHT22;1062;52.538;13.400;2022-12-18T07:23:36;-5.40;99.90
2112;DHT22;1062;52.538;13.400;2022-12-18T07:26:11;-5.30;99.90
2112;DHT22;1062;52.538;13.400;2022-12-18T07:28:38;-5.30;99.90
2112;DHT22;1062;52.538;13.400;2022-12-18T07:31:13;-5.40;99.90
2112;DHT22;1062;52.538;13.400;2022-12-18T07:33:38;-5.30;99.90
2112;DHT22;1062;52.538;13.400;2022-12-18T07:36:06;-5.30;99.90
2112;DHT22;1062;52.538;13.400;2022-12-18T07:38:33;-5.50;99.90
2112;DHT22;1062;52.538;13.400;2022-12-18T07:41:03;-5.40;99.90
2112;DHT22;1062;52.538;13.400;2022-12-18T07:43:29;-5.40;99.90
2112;DHT22;1062;52.538;13.400;2022-12-18T07:45:55;-5.40;99.90
2112;DHT22;1062;52.538;13.400;2022-12-18T07:48:20;-5.50;99.90
2112;DHT22;1062;52.538;13.400;2022-12-18T07:50:46;-5.60;99.90
2112;DHT22;1062;52.538;13.400;2022-12-18T07:53:11;-5.50;99.90
2112;DHT22;1062;52.538;13.400;2022-12-18T07:55:37;-5.50;99.90
2112;DHT22;1062;52.538;13.400;2022-12-18T07:58:03;-5.50;99.90
2112;DHT22;1062;52.538;13.400;2022-12-18T08:00:30;-5.50;99.90
2112;DHT22;1062;52.538;13.400;2022-12-18T08:02:56;-5.40;99.90
2112;DHT22;1062;52.538;13.400;2022-12-18T08:05:21;-5.30;99.90
2112;DHT22;1062;52.538;13.400;2022-12-18T08:07:47;-5.40;99.90
2112;DHT22;1062;52.538;13.400;2022-12-18T08:10:13;-5.40;99.90
2112;DHT22;1062;52.538;13.400;2022-12-18T08:12:39;-5.40;99.90
2112;DHT22;1062;52.538;13.400;2022-12-18T08:15:05;-5.50;99.90
2112;DHT22;1062;52.538;13.400;2022-12-18T08:17:31;-5.30;99.90
2112;DHT22;1062;52.538;13.400;2022-12-18T08:19:57;-5.00;99.90
2112;DHT22;1062;52.538;13.400;2022-12-18T08:22:22;-5.00;99.90
2112;DHT22;1062;52.538;13.400;2022-12-18T08:24:48;-4.90;99.90
2112;DHT22;1062;52.538;13.400;2022-12-18T08:27:14;-4.80;99.90
2112;DHT22;1062;52.538;13.400;2022-12-18T08:29:39;-5.00;99.90
2112;DHT22;1062;52.538;13.400;2022-12-18T08:32:05;-5.10;99.90
2112;DHT22;1062;52.538;13.400;2022-12-18T08:34:30;-5.30;99.90
2112;DHT22;1062;52.538;13.400;2022-12-18T08:36:56;-5.30;99.90
2112;DHT22;1062;52.538;13.400;2022-12-18T08:39:21;-5.30;99.90
2112;DHT22;1062;52.538;13.400;2022-12-18T08:41:47;-5.30;99.90
2112;DHT22;1062;52.538;13.400;2022-12-18T08:44:33;-5.20;99.90
2112;DHT22;1062;52.538;13.400;2022-12-18T08:47:05;-5.20;99.90
2112;DHT22;1062;52.538;13.400;2022-12-18T08:49:31;-5.10;99.90
2112;DHT22;1062;52.538;13.400;2022-12-18T08:51:57;-5.00;99.90
2112;DHT22;1062;52.538;13.400;2022-12-18T08:54:23;-5.00;99.90
2112;DHT22;1062;52.538;13.400;2022-12-18T08:56:49;-4.90;99.90
2112;DHT22;1062;52.538;13.400;2022-12-18T08:59:16;-4.80;99.90
2112;DHT22;1062;52.538;13.400;2022-12-18T09:01:41;-4.80;99.90
2112;DHT22;1062;52.538;13.400;2022-12-18T09:04:08;-4.70;99.90
2112;DHT22;1062;52.538;13.400;2022-12-18T09:06:34;-4.70;99.90
2112;DHT22;1062;52.538;13.400;2022-12-18T09:09:00;-4.70;99.90
2112;DHT22;1062;52.538;13.400;2022-12-18T09:11:28;-4.60;99.90
2112;DHT22;1062;52.538;13.400;2022-12-18T09:13:54;-4.70;99.90
2112;DHT22;1062;52.538;13.400;2022-12-18T09:16:20;-4.60;99.90
2112;DHT22;1062;52.538;13.400;2022-12-18T09:18:47;-4.50;99.90
2112;DHT22;1062;52.538;13.400;2022-12-18T09:21:20;-4.50;99.90
2112;DHT22;1062;52.538;13.400;2022-12-18T09:23:50;-4.40;99.90
2112;DHT22;1062;52.538;13.400;2022-12-18T09:26:16;-4.40;99.90
2112;DHT22;1062;52.538;13.400;2022-12-18T09:28:42;-4.40;99.90
2112;DHT22;1062;52.538;13.400;2022-12-18T09:31:10;-4.40;99.90
2112;DHT22;1062;52.538;13.400;2022-12-18T09:33:36;-4.20;99.90
2112;DHT22;1062;52.538;13.400;2022-12-18T09:36:06;-4.50;99.90
2112;DHT22;1062;52.538;13.400;2022-12-18T09:38:32;-4.30;99.90
2112;DHT22;1062;52.538;13.400;2022-12-18T09:46:44;-4.30;99.90
2112;DHT22;1062;52.538;13.400;2022-12-18T09:49:17;-4.20;99.90
2112;DHT22;1062;52.538;13.400;2022-12-18T09:51:56;-4.20;99.90
2112;DHT22;1062;52.538;13.400;2022-12-18T09:54:34;-4.10;99.90
2112;DHT22;1062;52.538;13.400;2022-12-18T09:57:01;-4.00;99.90
2112;DHT22;1062;52.538;13.400;2022-12-18T09:59:35;-4.10;99.90
2112;DHT22;1062;52.538;13.400;2022-12-18T10:02:13;-4.10;99.90
2112;DHT22;1062;52.538;13.400;2022-12-18T10:04:39;-4.10;99.90
2112;DHT22;1062;52.538;13.400;2022-12-18T10:07:19;-3.90;99.90
2112;DHT22;1062;52.538;13.400;2022-12-18T10:10:22;-3.90;99.90
2112;DHT22;1062;52.538;13.400;2022-12-18T10:16:01;-3.70;99.90
2112;DHT22;1062;52.538;13.400;2022-12-18T10:21:10;-3.60;99.90
2112;DHT22;1062;52.538;13.400;2022-12-18T10:26:24;-3.70;99.90
2112;DHT22;1062;52.538;13.400;2022-12-18T10:28:51;-3.70;99.90
2112;DHT22;1062;52.538;13.400;2022-12-18T10:31:21;-3.60;99.90
2112;DHT22;1062;52.538;13.400;2022-12-18T10:33:47;-3.70;99.90
2112;DHT22;1062;52.538;13.400;2022-12-18T10:36:13;-3.70;99.90
2112;DHT22;1062;52.538;13.400;2022-12-18T10:38:39;-3.60;99.90
2112;DHT22;1062;52.538;13.400;2022-12-18T10:44:12;-3.50;99.90
2112;DHT22;1062;52.538;13.400;2022-12-18T10:46:37;-3.60;99.90
2112;DHT22;1062;52.538;13.400;2022-12-18T10:49:04;-3.50;99.90
2112;DHT22;1062;52.538;13.400;2022-12-18T10:51:31;-3.40;99.90
2112;DHT22;1062;52.538;13.400;2022-12-18T10:56:42;-3.20;99.90
2112;DHT22;1062;52.538;13.400;2022-12-18T10:59:10;-3.20;99.90
2112;DHT22;1062;52.538;13.400;2022-12-18T11:01:54;-3.30;99.90
2112;DHT22;1062;52.538;13.400;2022-12-18T11:04:29;-3.40;99.90
2112;DHT22;1062;52.538;13.400;2022-12-18T11:07:06;-3.30;99.90
2112;DHT22;1062;52.538;13.400;2022-12-18T11:09:34;-3.20;99.90
2112;DHT22;1062;52.538;13.400;2022-12-18T11:12:25;-3.00;99.90
2112;DHT22;1062;52.538;13.400;2022-12-18T11:15:15;-3.20;99.90
2112;DHT22;1062;52.538;13.400;2022-12-18T11:17:41;-3.30;99.90
2112;DHT22;1062;52.538;13.400;2022-12-18T11:20:32;-3.30;99.90
2112;DHT22;1062;52.538;13.400;2022-12-18T11:23:03;-3.40;99.90
2112;DHT22;1062;52.538;13.400;2022-12-18T11:25:30;-3.30;99.90
2112;DHT22;1062;52.538;13.400;2022-12-18T11:28:02;-3.30;99.90
2112;DHT22;1062;52.538;13.400;2022-12-18T11:30:35;-3.30;99.90
2112;DHT22;1062;52.538;13.400;2022-12-18T11:33:05;-3.30;99.90
2112;DHT22;1062;52.538;13.400;2022-12-18T11:38:06;-3.30;99.90
2112;DHT22;1062;52.538;13.400;2022-12-18T11:40:40;-3.20;99.90
2112;DHT22;1062;52.538;13.400;2022-12-18T11:46:30;-3.30;99.90
2112;DHT22;1062;52.538;13.400;2022-12-18T11:49:21;-3.30;99.90
2112;DHT22;1062;52.538;13.400;2022-12-18T11:51:57;-3.40;99.90
2112;DHT22;1062;52.538;13.400;2022-12-18T11:54:24;-3.30;99.90
2112;DHT22;1062;52.538;13.400;2022-12-18T11:56:58;-3.30;99.90
2112;DHT22;1062;52.538;13.400;2022-12-18T12:02:38;-3.40;99.90
2112;DHT22;1062;52.538;13.400;2022-12-18T12:16:12;-3.60;99.90
2112;DHT22;1062;52.538;13.400;2022-12-18T12:21:41;-3.50;99.90
2112;DHT22;1062;52.538;13.400;2022-12-18T12:24:25;-3.40;99.90
2112;DHT22;1062;52.538;13.400;2022-12-18T12:27:18;-3.40;99.90
2112;DHT22;1062;52.538;13.400;2022-12-18T12:38:33;-3.30;99.90
2112;DHT22;1062;52.538;13.400;2022-12-18T12:41:10;-3.40;99.90
2112;DHT22;1062;52.538;13.400;2022-12-18T12:44:00;-3.40;99.90
2112;DHT22;1062;52.538;13.400;2022-12-18T12:46:27;-3.40;99.90
2112;DHT22;1062;52.538;13.400;2022-12-18T12:48:57;-3.40;99.90
2112;DHT22;1062;52.538;13.400;2022-12-18T12:51:34;-3.30;99.90
2112;DHT22;1062;52.538;13.400;2022-12-18T12:54:03;-3.20;99.90
2112;DHT22;1062;52.538;13.400;2022-12-18T12:56:39;-3.10;99.90
2112;DHT22;1062;52.538;13.400;2022-12-18T13:02:15;-3.40;99.90
2112;DHT22;1062;52.538;13.400;2022-12-18T13:07:48;-3.40;99.90
2112;DHT22;1062;52.538;13.400;2022-12-18T13:12:58;-3.30;99.90
2112;DHT22;1062;52.538;13.400;2022-12-18T13:23:36;-3.10;99.90
2112;DHT22;1062;52.538;13.400;2022-12-18T13:33:39;-3.00;99.90
2112;DHT22;1062;52.538;13.400;2022-12-18T13:36:31;-3.00;99.90
2112;DHT22;1062;52.538;13.400;2022-12-18T13:41:45;-2.90;99.90
2112;DHT22;1062;52.538;13.400;2022-12-18T13:46:55;-3.00;99.90
2112;DHT22;1062;52.538;13.400;2022-12-18T13:49:23;-3.10;99.90
2112;DHT22;1062;52.538;13.400;2022-12-18T13:51:53;-3.20;99.90
2112;DHT22;1062;52.538;13.400;2022-12-18T13:54:36;-3.20;99.90
2112;DHT22;1062;52.538;13.400;2022-12-18T13:57:03;-3.30;99.90
2112;DHT22;1062;52.538;13.400;2022-12-18T13:59:40;-3.30;99.90
2112;DHT22;1062;52.538;13.400;2022-12-18T14:02:14;-3.40;99.90
2112;DHT22;1062;52.538;13.400;2022-12-18T14:04:40;-3.40;99.90
2112;DHT22;1062;52.538;13.400;2022-12-18T14:07:09;-3.50;99.90
2112;DHT22;1062;52.538;13.400;2022-12-18T14:09:40;-3.50;99.90
2112;DHT22;1062;52.538;13.400;2022-12-18T14:12:16;-3.50;99.90
2112;DHT22;1062;52.538;13.400;2022-12-18T14:18:38;-3.50;99.90
2112;DHT22;1062;52.538;13.400;2022-12-18T14:20:44;-3.40;99.90
2112;DHT22;1062;52.538;13.400;2022-12-18T14:26:00;-3.40;99.90
2112;DHT22;1062;52.538;13.400;2022-12-18T14:28:27;-3.30;99.90
2112;DHT22;1062;52.538;13.400;2022-12-18T14:30:53;-3.40;99.90
2112;DHT22;1062;52.538;13.400;2022-12-18T14:33:25;-3.30;99.90
2112;DHT22;1062;52.538;13.400;2022-12-18T14:36:05;-3.40;99.90
2112;DHT22;1062;52.538;13.400;2022-12-18T14:38:40;-3.30;99.90
2112;DHT22;1062;52.538;13.400;2022-12-18T14:41:10;-3.40;99.90
2112;DHT22;1062;52.538;13.400;2022-12-18T14:43:39;-3.50;99.90
2112;DHT22;1062;52.538;13.400;2022-12-18T14:46:27;-3.50;99.90
2112;DHT22;1062;52.538;13.400;2022-12-18T14:48:52;-3.50;99.90
2112;DHT22;1062;52.538;13.400;2022-12-18T14:51:26;-3.50;99.90
2112;DHT22;1062;52.538;13.400;2022-12-18T14:53:57;-3.70;99.90
2112;DHT22;1062;52.538;13.400;2022-12-18T14:56:26;-3.80;99.90
2112;DHT22;1062;52.538;13.400;2022-12-18T15:01:44;-3.80;99.90
2112;DHT22;1062;52.538;13.400;2022-12-18T15:07:15;-3.90;99.90
2112;DHT22;1062;52.538;13.400;2022-12-18T15:09:44;-3.90;99.90
2112;DHT22;1062;52.538;13.400;2022-12-18T15:12:37;-3.90;99.90
2112;DHT22;1062;52.538;13.400;2022-12-18T15:15:05;-3.90;99.90
2112;DHT22;1062;52.538;13.400;2022-12-18T15:17:57;-3.90;99.90
2112;DHT22;1062;52.538;13.400;2022-12-18T15:20:23;-3.90;99.90
2112;DHT22;1062;52.538;13.400;2022-12-18T15:22:48;-3.80;99.90
2112;DHT22;1062;52.538;13.400;2022-12-18T15:25:35;-3.80;99.90
2112;DHT22;1062;52.538;13.400;2022-12-18T15:28:03;-3.80;99.90
2112;DHT22;1062;52.538;13.400;2022-12-18T15:30:28;-3.80;99.90
2112;DHT22;1062;52.538;13.400;2022-12-18T15:33:24;-3.80;99.90
2112;DHT22;1062;52.538;13.400;2022-12-18T15:36:03;-3.80;99.90
2112;DHT22;1062;52.538;13.400;2022-12-18T15:38:29;-3.90;99.90
2112;DHT22;1062;52.538;13.400;2022-12-18T15:40:55;-3.90;99.90
2112;DHT22;1062;52.538;13.400;2022-12-18T15:43:24;-3.90;99.90
2112;DHT22;1062;52.538;13.400;2022-12-18T15:46:00;-3.80;99.90
2112;DHT22;1062;52.538;13.400;2022-12-18T15:48:26;-3.80;99.90
2112;DHT22;1062;52.538;13.400;2022-12-18T15:50:52;-3.70;99.90
2112;DHT22;1062;52.538;13.400;2022-12-18T15:53:20;-3.70;99.90
2112;DHT22;1062;52.538;13.400;2022-12-18T15:55:46;-3.70;99.90
2112;DHT22;1062;52.538;13.400;2022-12-18T15:58:30;-3.70;99.90
2112;DHT22;1062;52.538;13.400;2022-12-18T16:00:58;-3.70;99.90
2112;DHT22;1062;52.538;13.400;2022-12-18T16:03:24;-3.70;99.90
2112;DHT22;1062;52.538;13.400;2022-12-18T16:05:50;-3.70;99.90
2112;DHT22;1062;52.538;13.400;2022-12-18T16:08:15;-3.70;99.90
2112;DHT22;1062;52.538;13.400;2022-12-18T16:10:41;-3.70;99.90
2112;DHT22;1062;52.538;13.400;2022-12-18T16:13:10;-3.80;99.90
2112;DHT22;1062;52.538;13.400;2022-12-18T16:15:37;-3.80;99.90
2112;DHT22;1062;52.538;13.400;2022-12-18T16:18:02;-3.80;99.90
2112;DHT22;1062;52.538;13.400;2022-12-18T16:20:28;-3.90;99.90
2112;DHT22;1062;52.538;13.400;2022-12-18T16:22:54;-3.90;99.90
2112;DHT22;1062;52.538;13.400;2022-12-18T16:25:20;-4.00;99.90
2112;DHT22;1062;52.538;13.400;2022-12-18T16:27:46;-3.90;99.90
2112;DHT22;1062;52.538;13.400;2022-12-18T16:30:14;-3.90;99.90
2112;DHT22;1062;52.538;13.400;2022-12-18T16:32:39;-3.90;99.90
2112;DHT22;1062;52.538;13.400;2022-12-18T16:35:05;-3.90;99.90
2112;DHT22;1062;52.538;13.400;2022-12-18T16:37:31;-3.80;99.90
2112;DHT22;1062;52.538;13.400;2022-12-18T16:39:57;-3.80;99.90
2112;DHT22;1062;52.538;13.400;2022-12-18T16:42:22;-3.80;99.90
2112;DHT22;1062;52.538;13.400;2022-12-18T16:44:49;-3.80;99.90
2112;DHT22;1062;52.538;13.400;2022-12-18T16:47:15;-3.80;99.90
2112;DHT22;1062;52.538;13.400;2022-12-18T16:49:41;-3.80;99.90
2112;DHT22;1062;52.538;13.400;2022-12-18T16:52:07;-3.80;99.90
2112;DHT22;1062;52.538;13.400;2022-12-18T16:54:34;-3.80;99.90
2112;DHT22;1062;52.538;13.400;2022-12-18T16:57:01;-3.80;99.90
2112;DHT22;1062;52.538;13.400;2022-12-18T16:59:27;-3.90;99.90
2112;DHT22;1062;52.538;13.400;2022-12-18T17:01:53;-3.90;99.90
2112;DHT22;1062;52.538;13.400;2022-12-18T17:04:20;-4.00;99.90
2112;DHT22;1062;52.538;13.400;2022-12-18T17:06:45;-3.90;99.90
2112;DHT22;1062;52.538;13.400;2022-12-18T17:09:17;-4.00;99.90
2112;DHT22;1062;52.538;13.400;2022-12-18T17:11:44;-4.00;99.90
2112;DHT22;1062;52.538;13.400;2022-12-18T17:14:15;-4.00;99.90
2112;DHT22;1062;52.538;13.400;2022-12-18T17:16:41;-4.10;99.90
2112;DHT22;1062;52.538;13.400;2022-12-18T17:19:06;-4.00;99.90
2112;DHT22;1062;52.538;13.400;2022-12-18T17:21:32;-4.10;99.90
2112;DHT22;1062;52.538;13.400;2022-12-18T17:24:01;-4.20;99.90
2112;DHT22;1062;52.538;13.400;2022-12-18T17:26:28;-4.20;99.90
2112;DHT22;1062;52.538;13.400;2022-12-18T17:28:55;-4.20;99.90
2112;DHT22;1062;52.538;13.400;2022-12-18T17:31:23;-4.20;99.90
2112;DHT22;1062;52.538;13.400;2022-12-18T17:33:49;-4.20;99.90
2112;DHT22;1062;52.538;13.400;2022-12-18T17:36:15;-4.20;99.90
2112;DHT22;1062;52.538;13.400;2022-12-18T17:38:41;-4.30;99.90
2112;DHT22;1062;52.538;13.400;2022-12-18T17:41:09;-4.20;99.90
2112;DHT22;1062;52.538;13.400;2022-12-18T17:43:35;-4.30;99.90
2112;DHT22;1062;52.538;13.400;2022-12-18T17:46:05;-4.30;99.90
2112;DHT22;1062;52.538;13.400;2022-12-18T17:48:31;-4.30;99.90
2112;DHT22;1062;52.538;13.400;2022-12-18T17:51:06;-4.30;99.90
2112;DHT22;1062;52.538;13.400;2022-12-18T17:53:32;-4.30;99.90